Time;durP1;ratioP1;P1;durP2;ratioP2;P2;SDS_P1;SDS_P2;PMS_P1;PMS_P2;Temp;Humidity;BMP_temperature;BMP_pressure;BME280_temperature;BME280_humidity;BME280_pressure;Samples;Min_cycle;Max_cycle;Signal;HPM_P1;HPM_P2
2021/01/14 00:01:43;;;;;;;6.80;6.10;;;4.50;99.90;;;;;;5019611;28;20256;-87
2021/01/14 00:04:09;;;;;;;6.60;5.97;;;4.40;99.90;;;;;;5020047;28;20278;-87
2021/01/14 00:06:34;;;;;;;7.27;6.60;;;4.50;99.90;;;;;;5019235;28;20721;-87
2021/01/14 00:09:00;;;;;;;6.60;5.97;;;4.50;99.90;;;;;;5002084;28;20221;-87
2021/01/14 00:11:26;;;;;;;6.90;6.30;;;4.50;99.90;;;;;;5018691;28;20225;-87
2021/01/14 00:13:51;;;;;;;6.53;5.93;;;4.40;99.90;;;;;;5019540;28;20213;-87
2021/01/14 00:16:17;;;;;;;7.00;6.20;;;4.40;99.90;;;;;;5019443;28;20193;-87
2021/01/14 00:18:42;;;;;;;6.93;6.23;;;4.50;99.90;;;;;;5019613;28;20677;-87
2021/01/14 00:21:08;;;;;;;6.13;5.53;;;4.50;99.90;;;;;;5019679;28;20264;-87
2021/01/14 00:23:34;;;;;;;6.00;5.40;;;4.50;99.90;;;;;;5019559;28;20241;-87
2021/01/14 00:25:59;;;;;;;6.77;6.17;;;4.60;99.90;;;;;;5018655;28;20193;-87
2021/01/14 00:28:25;;;;;;;5.90;5.30;;;4.50;99.90;;;;;;5019293;28;20217;-87
2021/01/14 00:30:51;;;;;;;6.33;5.73;;;4.40;99.90;;;;;;5001873;28;20201;-87
2021/01/14 00:33:16;;;;;;;6.77;6.03;;;4.50;99.90;;;;;;5024788;28;20284;-87
2021/01/14 00:35:42;;;;;;;5.70;4.97;;;4.40;99.90;;;;;;5026996;28;20793;-87
2021/01/14 00:38:08;;;;;;;4.97;4.57;;;4.30;99.90;;;;;;5004524;28;20320;-87
2021/01/14 00:40:34;;;;;;;4.80;4.10;;;4.40;98.80;;;;;;5017750;28;20181;-87
2021/01/14 00:43:02;;;;;;;3.50;3.20;;;4.30;97.30;;;;;;5016309;28;20235;-88
2021/01/14 00:45:29;;;;;;;4.43;3.30;;;4.30;95.00;;;;;;5018302;28;20260;-87
2021/01/14 00:47:55;;;;;;;4.43;4.03;;;4.20;94.70;;;;;;5017420;28;20660;-87
2021/01/14 00:50:22;;;;;;;3.00;2.70;;;4.20;92.90;;;;;;5019014;28;20197;-87
2021/01/14 00:52:48;;;;;;;2.60;2.40;;;4.10;92.30;;;;;;5018426;28;20189;-87
2021/01/14 00:55:15;;;;;;;3.00;2.70;;;3.90;94.30;;;;;;5018929;28;20206;-87
2021/01/14 00:57:41;;;;;;;2.40;2.20;;;3.80;93.80;;;;;;5018476;28;20711;-87
2021/01/14 01:00:09;;;;;;;2.80;2.50;;;3.80;93.10;;;;;;5019759;28;20198;-87
2021/01/14 01:02:36;;;;;;;2.63;2.30;;;3.70;93.10;;;;;;5018873;28;20181;-87
2021/01/14 01:05:01;;;;;;;3.43;2.40;;;3.80;89.20;;;;;;5018290;28;20190;-87
2021/01/14 01:07:27;;;;;;;2.83;1.87;;;3.70;91.00;;;;;;5018683;28;20192;-87
2021/01/14 01:09:53;;;;;;;1.87;1.77;;;3.70;90.80;;;;;;5018305;28;20233;-87
2021/01/14 01:12:18;;;;;;;1.67;1.57;;;3.80;88.20;;;;;;5017802;28;20268;-87
2021/01/14 01:14:44;;;;;;;2.70;1.87;;;3.70;88.50;;;;;;5019537;28;20213;-87
2021/01/14 01:17:10;;;;;;;1.60;1.50;;;3.50;89.40;;;;;;5020332;28;20194;-86
2021/01/14 01:19:36;;;;;;;2.47;1.70;;;3.40;88.60;;;;;;5019802;28;20213;-87
2021/01/14 01:22:02;;;;;;;1.80;1.70;;;3.40;90.20;;;;;;5019351;28;20633;-86
2021/01/14 01:24:27;;;;;;;2.70;1.80;;;3.40;88.20;;;;;;5018794;28;20189;-87
2021/01/14 01:26:53;;;;;;;1.83;1.70;;;3.40;89.30;;;;;;5018649;28;20194;-87
2021/01/14 01:29:20;;;;;;;1.70;1.57;;;3.50;88.40;;;;;;5018650;28;20213;-87
2021/01/14 01:31:45;;;;;;;2.00;1.83;;;3.40;88.80;;;;;;5018376;28;20207;-87
2021/01/14 01:34:11;;;;;;;1.80;1.50;;;3.40;88.80;;;;;;5019301;28;20205;-87
2021/01/14 01:36:37;;;;;;;1.60;1.50;;;3.30;90.20;;;;;;5019714;28;20191;-87
2021/01/14 01:39:04;;;;;;;1.67;1.57;;;3.40;89.70;;;;;;5018520;28;20271;-87
2021/01/14 01:41:30;;;;;;;1.70;1.60;;;3.30;90.00;;;;;;5019125;28;20232;-87
2021/01/14 01:43:55;;;;;;;1.47;1.37;;;3.40;89.70;;;;;;5019097;28;20647;-87
2021/01/14 01:46:27;;;;;;;1.93;1.50;;;3.40;90.10;;;;;;5018714;28;20188;-87
2021/01/14 01:48:55;;;;;;;1.60;1.50;;;3.40;89.60;;;;;;5017486;28;20238;-87
2021/01/14 01:51:22;;;;;;;1.50;1.40;;;3.40;90.60;;;;;;5018650;28;20235;-87
2021/01/14 01:53:48;;;;;;;1.23;1.23;;;3.30;91.10;;;;;;5016706;28;20201;-87
2021/01/14 01:56:19;;;;;;;1.70;1.60;;;3.30;91.70;;;;;;5018344;28;20182;-87
2021/01/14 01:58:46;;;;;;;1.50;1.40;;;3.30;90.80;;;;;;5017932;28;20201;-87
2021/01/14 02:01:12;;;;;;;1.83;1.40;;;3.20;92.20;;;;;;5017789;28;20238;-87
2021/01/14 02:03:38;;;;;;;1.57;1.47;;;3.20;92.80;;;;;;5018144;28;20186;-87
2021/01/14 02:06:04;;;;;;;2.97;1.80;;;3.20;91.60;;;;;;5018890;28;20189;-87
2021/01/14 02:08:43;;;;;;;1.93;1.83;;;3.20;92.30;;;;;;5017399;28;20213;-87
2021/01/14 02:11:12;;;;;;;2.07;1.73;;;3.10;93.60;;;;;;5017444;28;20181;-88
2021/01/14 02:13:45;;;;;;;2.80;2.00;;;3.10;93.10;;;;;;5017300;28;20240;-87
2021/01/14 02:16:13;;;;;;;1.67;1.53;;;3.30;91.50;;;;;;5017397;28;20178;-87
2021/01/14 02:18:39;;;;;;;2.07;1.63;;;3.30;91.80;;;;;;5017711;28;20213;-86
2021/01/14 02:21:08;;;;;;;1.83;1.73;;;3.20;93.10;;;;;;5017931;28;20579;-87
2021/01/14 02:24:04;;;;;;;1.90;1.80;;;3.00;95.00;;;;;;5021072;28;20280;-87
2021/01/14 02:26:31;;;;;;;2.53;1.90;;;2.90;96.30;;;;;;5021856;28;20174;-87
2021/01/14 02:28:58;;;;;;;1.70;1.60;;;2.90;96.30;;;;;;5022166;28;20198;-86
2021/01/14 02:31:24;;;;;;;1.70;1.60;;;3.00;96.00;;;;;;5022114;28;20182;-87
2021/01/14 02:33:52;;;;;;;1.60;1.50;;;3.00;96.10;;;;;;5020054;28;20185;-87
2021/01/14 02:36:19;;;;;;;1.80;1.60;;;3.00;95.40;;;;;;5020704;28;20704;-87
2021/01/14 02:38:45;;;;;;;1.70;1.60;;;3.00;95.40;;;;;;5021664;28;20218;-87
2021/01/14 02:41:10;;;;;;;2.43;2.23;;;2.90;96.30;;;;;;5022059;28;20185;-88
2021/01/14 02:43:36;;;;;;;2.23;2.03;;;3.00;96.50;;;;;;5021367;28;20209;-87
2021/01/14 02:46:03;;;;;;;1.77;1.67;;;2.90;96.50;;;;;;5004251;28;20232;-87
2021/01/14 02:48:34;;;;;;;1.70;1.60;;;3.00;96.50;;;;;;5021780;28;20269;-87
2021/01/14 02:51:06;;;;;;;1.83;1.73;;;3.10;96.20;;;;;;5021305;28;20660;-87
2021/01/14 02:53:33;;;;;;;2.53;1.67;;;3.10;94.60;;;;;;5003879;28;20185;-87
2021/01/14 02:56:02;;;;;;;2.17;2.00;;;3.20;95.00;;;;;;5021559;28;20244;-87
2021/01/14 02:58:28;;;;;;;2.73;2.10;;;3.10;95.80;;;;;;5021255;28;20201;-87
2021/01/14 03:00:57;;;;;;;2.00;1.83;;;3.00;96.60;;;;;;5021258;28;20212;-87
2021/01/14 03:03:23;;;;;;;2.47;1.80;;;2.90;97.20;;;;;;5020907;28;20246;-87
2021/01/14 03:05:49;;;;;;;3.37;1.90;;;2.80;97.20;;;;;;5004084;28;20193;-88
2021/01/14 03:08:15;;;;;;;1.93;1.80;;;2.80;98.40;;;;;;5021231;28;20198;-87
2021/01/14 03:10:42;;;;;;;2.40;1.90;;;2.90;97.00;;;;;;5021230;28;20182;-87
2021/01/14 03:13:07;;;;;;;2.40;2.03;;;2.80;97.20;;;;;;5021141;28;20196;-87
2021/01/14 03:15:33;;;;;;;1.93;1.83;;;2.80;97.50;;;;;;5021476;28;20233;-87
2021/01/14 03:17:59;;;;;;;2.30;2.10;;;2.70;98.20;;;;;;5021154;28;20182;-88
2021/01/14 03:20:24;;;;;;;2.40;2.10;;;2.70;98.50;;;;;;5003703;28;20174;-86
2021/01/14 03:22:50;;;;;;;2.30;2.10;;;2.80;98.20;;;;;;5020582;28;20193;-87
2021/01/14 03:25:16;;;;;;;3.67;2.13;;;2.80;97.70;;;;;;5020948;28;20205;-86
2021/01/14 03:27:44;;;;;;;2.57;2.00;;;2.70;98.30;;;;;;5021081;28;20177;-86
2021/01/14 03:30:11;;;;;;;2.03;1.83;;;2.60;99.10;;;;;;5003734;28;20212;-86
2021/01/14 03:32:38;;;;;;;2.63;2.07;;;2.70;98.80;;;;;;5020457;28;20576;-87
2021/01/14 03:35:05;;;;;;;1.90;1.77;;;2.90;97.50;;;;;;5021125;28;20209;-86
2021/01/14 03:37:31;;;;;;;2.50;2.00;;;2.80;97.20;;;;;;5023192;28;20189;-87
2021/01/14 03:39:56;;;;;;;2.13;1.93;;;2.80;97.20;;;;;;5009610;28;20236;-87
2021/01/14 03:42:23;;;;;;;2.30;2.10;;;2.60;98.00;;;;;;5041205;28;20180;-86
2021/01/14 03:44:49;;;;;;;2.17;1.90;;;2.70;98.10;;;;;;5023593;28;20706;-87
2021/01/14 03:47:15;;;;;;;2.60;2.23;;;2.60;99.10;;;;;;5023652;28;20205;-87
2021/01/14 03:49:42;;;;;;;2.10;1.90;;;2.60;99.00;;;;;;5041236;28;20231;-86
2021/01/14 03:52:11;;;;;;;2.50;2.00;;;2.70;98.00;;;;;;5041428;28;20215;-87
2021/01/14 03:54:37;;;;;;;3.00;2.20;;;2.60;98.60;;;;;;5023092;28;20235;-87
2021/01/14 03:57:04;;;;;;;2.63;2.03;;;2.50;99.60;;;;;;5037172;28;20268;-87
2021/01/14 03:59:30;;;;;;;2.07;1.87;;;2.50;99.40;;;;;;5021427;28;20201;-87
2021/01/14 04:02:06;;;;;;;4.10;1.97;;;2.60;99.10;;;;;;5020413;28;20355;-87
2021/01/14 04:04:40;;;;;;;2.33;2.13;;;2.50;99.00;;;;;;5020571;28;20173;-87
2021/01/14 04:07:13;;;;;;;4.03;1.97;;;2.70;98.30;;;;;;5020306;28;20177;-87
2021/01/14 04:09:40;;;;;;;2.30;2.10;;;2.50;99.70;;;;;;5020380;28;20201;-87
2021/01/14 04:12:06;;;;;;;2.93;2.10;;;2.40;99.90;;;;;;5019985;28;20192;-87
2021/01/14 04:14:32;;;;;;;2.57;1.90;;;2.50;99.90;;;;;;5019569;28;20768;-87
2021/01/14 04:16:59;;;;;;;2.30;2.10;;;2.50;99.90;;;;;;5019823;28;20222;-87
2021/01/14 04:19:25;;;;;;;2.17;1.80;;;2.30;99.90;;;;;;5018577;28;20197;-87
2021/01/14 04:21:51;;;;;;;2.83;2.10;;;2.40;99.90;;;;;;5020196;28;20181;-87
2021/01/14 04:24:17;;;;;;;2.53;2.23;;;2.30;99.90;;;;;;5019686;28;20197;-86
2021/01/14 04:26:43;;;;;;;2.30;2.10;;;2.30;99.90;;;;;;5020097;28;20181;-86
2021/01/14 04:29:09;;;;;;;3.20;2.40;;;2.30;99.90;;;;;;5020962;28;20203;-87
2021/01/14 04:31:35;;;;;;;3.07;2.30;;;2.30;99.90;;;;;;5021993;28;20185;-87
2021/01/14 04:34:02;;;;;;;3.43;2.40;;;2.30;99.90;;;;;;5021528;28;20184;-87
2021/01/14 04:36:28;;;;;;;2.53;2.23;;;2.10;99.90;;;;;;5022330;28;20182;-87
2021/01/14 04:38:54;;;;;;;3.13;2.40;;;2.20;99.90;;;;;;5022193;28;20217;-86
2021/01/14 04:41:21;;;;;;;3.37;2.30;;;2.20;99.90;;;;;;5022294;28;20668;-87
2021/01/14 04:43:48;;;;;;;3.50;2.77;;;2.20;99.90;;;;;;5020273;28;20182;-87
2021/01/14 04:46:15;;;;;;;4.43;2.47;;;2.20;99.90;;;;;;5021835;28;20263;-87
2021/01/14 04:48:41;;;;;;;3.27;2.37;;;2.20;99.90;;;;;;5021353;28;20233;-87
2021/01/14 04:51:10;;;;;;;3.07;2.77;;;2.10;99.90;;;;;;5021421;28;20831;-87
2021/01/14 04:53:38;;;;;;;3.33;2.40;;;2.00;99.90;;;;;;5022616;28;20178;-87
2021/01/14 04:56:06;;;;;;;2.90;2.50;;;2.10;99.90;;;;;;5004305;28;20236;-87
2021/01/14 04:58:34;;;;;;;4.53;2.63;;;2.10;99.90;;;;;;5021899;28;20202;-87
2021/01/14 05:01:04;;;;;;;3.00;2.57;;;2.10;99.90;;;;;;5004176;28;20204;-86
2021/01/14 05:03:33;;;;;;;4.97;2.70;;;2.20;99.90;;;;;;5022336;28;20173;-87
2021/01/14 05:06:01;;;;;;;2.97;2.67;;;2.20;99.90;;;;;;5022577;28;20186;-86
2021/01/14 05:08:29;;;;;;;3.23;2.50;;;2.30;99.90;;;;;;5004113;28;20277;-87
2021/01/14 05:10:56;;;;;;;3.27;2.67;;;2.20;99.90;;;;;;5021564;28;20193;-87
2021/01/14 05:13:22;;;;;;;2.73;2.53;;;2.30;99.90;;;;;;5022381;28;20665;-87
2021/01/14 05:15:48;;;;;;;3.10;2.67;;;2.30;99.90;;;;;;5005108;28;20205;-87
2021/01/14 05:18:14;;;;;;;4.17;2.80;;;2.10;99.90;;;;;;5022854;28;20220;-87
2021/01/14 05:20:41;;;;;;;3.93;2.90;;;2.30;99.90;;;;;;5021662;28;20241;-86
2021/01/14 05:23:07;;;;;;;3.30;2.77;;;2.20;99.90;;;;;;5004580;28;20193;-87
2021/01/14 05:25:33;;;;;;;4.47;3.37;;;2.10;99.90;;;;;;5022508;28;20186;-87
2021/01/14 05:28:10;;;;;;;5.30;3.37;;;2.00;99.90;;;;;;5021942;28;20605;-87
2021/01/14 05:30:36;;;;;;;3.67;3.37;;;2.00;99.90;;;;;;5003645;28;20247;-87
2021/01/14 05:33:03;;;;;;;3.80;3.40;;;2.10;99.90;;;;;;5002571;28;20186;-87
2021/01/14 05:35:29;;;;;;;4.53;3.67;;;2.20;99.90;;;;;;5021839;28;20557;-87
2021/01/14 05:38:03;;;;;;;4.40;3.60;;;2.00;99.90;;;;;;5021513;28;20210;-87
2021/01/14 05:40:30;;;;;;;4.77;3.80;;;2.00;99.90;;;;;;5022113;28;20178;-87
2021/01/14 05:43:06;;;;;;;5.07;4.33;;;2.00;99.90;;;;;;5021402;28;20202;-87
2021/01/14 05:45:36;;;;;;;5.43;4.93;;;1.70;99.90;;;;;;5004310;28;20185;-87
2021/01/14 05:48:10;;;;;;;6.83;6.13;;;1.60;99.90;;;;;;5021503;28;20217;-87
2021/01/14 05:50:46;;;;;;;6.50;5.50;;;1.50;99.90;;;;;;5022473;28;20205;-86
2021/01/14 05:53:16;;;;;;;6.43;5.47;;;1.40;99.90;;;;;;5021622;28;20561;-87
2021/01/14 05:55:44;;;;;;;6.73;5.37;;;1.40;99.90;;;;;;5021926;28;20214;-87
2021/01/14 05:58:16;;;;;;;5.60;4.97;;;1.40;99.90;;;;;;5019941;28;20676;-86
2021/01/14 06:00:43;;;;;;;5.70;4.47;;;1.40;99.90;;;;;;5003393;28;20185;-86
2021/01/14 06:03:30;;;;;;;5.63;4.87;;;1.30;99.90;;;;;;5019033;28;20187;-87
2021/01/14 06:05:57;;;;;;;5.70;5.10;;;1.30;99.90;;;;;;4999132;28;20681;-87
2021/01/14 06:08:25;;;;;;;5.90;4.90;;;1.20;99.90;;;;;;5014229;28;20708;-87
2021/01/14 06:10:51;;;;;;;5.23;4.73;;;1.10;99.90;;;;;;5015919;28;20306;-88
2021/01/14 06:13:17;;;;;;;6.63;4.37;;;1.10;99.90;;;;;;5016487;28;20189;-88
2021/01/14 06:15:43;;;;;;;5.20;4.70;;;1.10;99.90;;;;;;4999229;28;20269;-87
2021/01/14 06:18:11;;;;;;;6.33;4.67;;;1.00;99.90;;;;;;5020282;28;20228;-86
2021/01/14 06:20:51;;;;;;;6.27;5.40;;;1.00;99.90;;;;;;5019899;28;20248;-87
2021/01/14 06:23:19;;;;;;;5.90;5.00;;;1.00;99.90;;;;;;5019194;28;20199;-87
2021/01/14 06:25:52;;;;;;;5.30;4.80;;;1.00;99.90;;;;;;5020467;28;20181;-86
2021/01/14 06:28:33;;;;;;;5.67;5.07;;;1.10;99.90;;;;;;5023610;28;20579;-87
2021/01/14 06:31:07;;;;;;;5.77;5.27;;;1.10;99.90;;;;;;5024386;28;20228;-86
2021/01/14 06:33:34;;;;;;;7.70;5.93;;;1.10;99.90;;;;;;5023494;28;20188;-86
2021/01/14 06:36:10;;;;;;;6.33;5.73;;;1.00;99.90;;;;;;5022748;28;20553;-86
2021/01/14 06:38:44;;;;;;;6.87;5.83;;;1.00;99.90;;;;;;5022274;28;20225;-86
2021/01/14 06:41:20;;;;;;;7.40;6.03;;;1.10;99.90;;;;;;5022652;28;20169;-87
2021/01/14 06:43:49;;;;;;;7.10;6.03;;;1.20;99.90;;;;;;5021947;28;20227;-88
2021/01/14 06:46:19;;;;;;;7.60;5.93;;;1.30;99.90;;;;;;5021590;28;20220;-87
2021/01/14 06:48:54;;;;;;;7.13;6.43;;;1.50;99.90;;;;;;5021254;28;20320;-87
2021/01/14 06:51:29;;;;;;;6.40;5.77;;;1.50;99.90;;;;;;5004181;28;20185;-87
2021/01/14 06:54:01;;;;;;;5.80;5.20;;;1.60;99.90;;;;;;5021481;28;20183;-87
2021/01/14 06:56:31;;;;;;;7.27;6.57;;;1.80;99.90;;;;;;5001496;28;20174;-87
2021/01/14 06:58:59;;;;;;;6.53;5.93;;;1.70;99.90;;;;;;5001755;28;20230;-88
2021/01/14 07:01:25;;;;;;;8.20;7.40;;;1.70;99.90;;;;;;5002672;28;20263;-87
2021/01/14 07:03:59;;;;;;;7.00;6.30;;;1.40;99.90;;;;;;5002892;28;20182;-87
2021/01/14 07:06:37;;;;;;;6.97;6.00;;;1.30;99.90;;;;;;4990786;28;20216;-87
2021/01/14 07:09:14;;;;;;;8.17;5.13;;;1.40;99.90;;;;;;5003939;28;20205;-87
2021/01/14 07:11:46;;;;;;;5.40;4.90;;;1.30;99.90;;;;;;5019305;28;20177;-87
2021/01/14 07:14:14;;;;;;;5.63;5.13;;;1.40;99.90;;;;;;4985503;28;20213;-88
2021/01/14 07:16:43;;;;;;;4.70;4.10;;;1.50;99.90;;;;;;5002179;28;20181;-88
2021/01/14 07:19:10;;;;;;;4.30;3.90;;;1.40;99.90;;;;;;5003421;28;20220;-87
2021/01/14 07:21:36;;;;;;;4.80;4.20;;;1.40;99.90;;;;;;5003300;28;20561;-87
2021/01/14 07:24:11;;;;;;;4.57;3.70;;;1.50;99.90;;;;;;5021834;28;20178;-88
2021/01/14 07:26:43;;;;;;;4.43;4.03;;;1.40;99.90;;;;;;5022600;28;20192;-87
2021/01/14 07:29:11;;;;;;;4.37;3.93;;;1.40;99.90;;;;;;5006839;28;20198;-87
2021/01/14 07:31:54;;;;;;;5.10;3.77;;;1.50;99.90;;;;;;5023026;28;20193;-87
2021/01/14 07:34:42;;;;;;;5.07;4.07;;;1.40;99.90;;;;;;5005230;28;20217;-88
2021/01/14 07:37:13;;;;;;;5.10;4.37;;;1.40;99.90;;;;;;5024685;28;20170;-87
2021/01/14 07:39:49;;;;;;;5.10;4.60;;;1.40;99.90;;;;;;5000596;28;20206;-88
2021/01/14 07:42:29;;;;;;;4.63;4.23;;;1.50;99.90;;;;;;5002127;28;20178;-88
2021/01/14 07:45:00;;;;;;;5.97;4.70;;;1.50;99.90;;;;;;5002776;28;20186;-88
2021/01/14 07:47:27;;;;;;;4.37;3.97;;;1.60;99.90;;;;;;5001750;28;20272;-88
2021/01/14 07:49:53;;;;;;;4.30;3.90;;;1.70;99.90;;;;;;5001325;28;20689;-87
2021/01/14 07:52:34;;;;;;;4.33;3.70;;;1.70;98.40;;;;;;5002153;28;20190;-88
2021/01/14 07:55:02;;;;;;;4.73;4.17;;;1.80;98.70;;;;;;5002109;28;20727;-88
2021/01/14 07:57:29;;;;;;;4.43;3.40;;;1.60;98.00;;;;;;4984660;28;20233;-87
2021/01/14 07:59:58;;;;;;;4.30;3.90;;;1.60;97.80;;;;;;4984950;28;20229;-87
2021/01/14 08:02:24;;;;;;;4.37;3.77;;;1.60;99.90;;;;;;4984598;28;20206;-90
2021/01/14 08:04:53;;;;;;;3.67;3.37;;;1.70;99.00;;;;;;5001391;28;20182;-87
2021/01/14 08:07:26;;;;;;;4.63;4.23;;;1.60;98.70;;;;;;4983392;28;20677;-87
2021/01/14 08:09:52;;;;;;;5.03;3.90;;;1.50;99.90;;;;;;5001334;28;20213;-87
2021/01/14 08:12:28;;;;;;;4.60;4.20;;;1.50;99.90;;;;;;5001483;28;20720;-89
2021/01/14 08:14:54;;;;;;;6.83;4.60;;;1.40;99.90;;;;;;5001413;28;20198;-88
2021/01/14 08:17:27;;;;;;;5.60;4.60;;;1.30;99.90;;;;;;4983811;28;20237;-88
2021/01/14 08:19:54;;;;;;;5.43;4.60;;;1.20;99.90;;;;;;5000297;28;20210;-87
2021/01/14 08:22:21;;;;;;;5.70;5.00;;;1.30;99.90;;;;;;5000997;28;20673;-88
2021/01/14 08:25:02;;;;;;;6.07;5.33;;;1.20;99.90;;;;;;5000934;28;20186;-89
2021/01/14 08:27:32;;;;;;;6.17;5.27;;;1.20;99.90;;;;;;5001446;28;20189;-87
2021/01/14 08:29:59;;;;;;;7.20;4.90;;;1.20;99.90;;;;;;5000865;28;20281;-88
2021/01/14 08:32:29;;;;;;;5.50;4.80;;;1.20;99.90;;;;;;5008741;28;20193;-89
2021/01/14 08:34:55;;;;;;;6.47;5.00;;;1.20;99.90;;;;;;5002894;28;20209;-88
2021/01/14 08:37:51;;;;;;;5.40;4.90;;;1.20;99.90;;;;;;5006689;28;20649;-87
2021/01/14 08:40:29;;;;;;;7.07;4.47;;;1.40;99.90;;;;;;5004361;28;20221;-89
2021/01/14 08:43:07;;;;;;;5.77;4.67;;;1.40;99.90;;;;;;5004922;28;20177;-87
2021/01/14 08:45:46;;;;;;;5.33;4.57;;;1.40;99.90;;;;;;5020239;28;20162;-88
2021/01/14 08:48:28;;;;;;;5.57;4.53;;;1.30;99.90;;;;;;5004577;28;20220;-89
2021/01/14 08:50:58;;;;;;;6.07;4.60;;;1.40;99.90;;;;;;5020851;28;20549;-88
2021/01/14 08:53:36;;;;;;;8.13;4.77;;;1.30;99.90;;;;;;5020704;28;20235;-88
2021/01/14 08:56:04;;;;;;;6.17;4.63;;;1.30;99.90;;;;;;5020410;28;20209;-87
2021/01/14 08:58:36;;;;;;;4.53;4.13;;;1.30;99.90;;;;;;5020300;28;20209;-88
2021/01/14 09:01:03;;;;;;;6.13;4.80;;;1.20;99.90;;;;;;5020405;28;20177;-88
2021/01/14 09:03:28;;;;;;;4.80;4.30;;;1.30;99.90;;;;;;5020687;28;20220;-88
2021/01/14 09:05:55;;;;;;;6.83;4.10;;;1.30;99.90;;;;;;5020192;28;20186;-87
2021/01/14 09:08:21;;;;;;;4.63;4.00;;;1.40;99.90;;;;;;5019825;28;20209;-88
2021/01/14 09:10:54;;;;;;;4.97;4.57;;;1.40;99.90;;;;;;5020987;28;20272;-88
2021/01/14 09:13:24;;;;;;;5.97;4.30;;;1.40;99.90;;;;;;5020161;28;20190;-87
2021/01/14 09:15:55;;;;;;;5.33;4.17;;;1.50;99.90;;;;;;5002813;28;20206;-87
2021/01/14 09:18:39;;;;;;;4.60;4.00;;;1.60;99.90;;;;;;5020322;28;20202;-87
2021/01/14 09:21:05;;;;;;;4.70;4.20;;;1.60;99.90;;;;;;5011029;28;20190;-87
2021/01/14 09:23:32;;;;;;;4.60;4.20;;;1.60;99.60;;;;;;5018458;28;20707;-87
2021/01/14 09:25:59;;;;;;;4.77;4.27;;;1.60;99.90;;;;;;5019560;28;20315;-87
2021/01/14 09:28:29;;;;;;;4.63;3.60;;;1.60;99.60;;;;;;5019811;28;20684;-87
2021/01/14 09:31:00;;;;;;;4.97;4.23;;;1.60;98.90;;;;;;5003220;28;20180;-87
2021/01/14 09:33:35;;;;;;;5.90;5.07;;;1.60;99.20;;;;;;5018873;28;20193;-87
2021/01/14 09:36:18;;;;;;;4.70;4.07;;;1.70;99.50;;;;;;4995084;28;20221;-88
2021/01/14 09:38:50;;;;;;;4.83;4.33;;;1.60;99.40;;;;;;5011069;28;20263;-87
2021/01/14 09:41:37;;;;;;;4.70;3.77;;;1.60;98.90;;;;;;5018359;28;20174;-87
2021/01/14 09:44:09;;;;;;;4.03;3.23;;;1.60;98.50;;;;;;5018927;28;20188;-88
2021/01/14 09:46:42;;;;;;;6.53;4.03;;;1.50;99.40;;;;;;5019706;28;20208;-87
2021/01/14 09:49:11;;;;;;;5.00;4.27;;;1.60;99.00;;;;;;5019555;28;20687;-87
2021/01/14 09:51:37;;;;;;;4.23;3.60;;;1.50;99.90;;;;;;5019701;28;20181;-87
2021/01/14 09:54:04;;;;;;;4.30;3.53;;;1.50;99.80;;;;;;5019198;28;20268;-87
2021/01/14 09:56:35;;;;;;;6.40;4.00;;;1.60;99.60;;;;;;5018421;28;20774;-87
2021/01/14 09:59:24;;;;;;;3.50;3.20;;;1.80;98.20;;;;;;5018578;28;20201;-87
2021/01/14 10:01:58;;;;;;;4.33;3.63;;;1.60;97.70;;;;;;5017641;28;20205;-87
2021/01/14 10:04:28;;;;;;;4.73;3.50;;;1.50;99.20;;;;;;5019608;28;20205;-87
2021/01/14 10:07:02;;;;;;;4.17;3.40;;;1.70;98.50;;;;;;5018792;28;20184;-87
2021/01/14 10:09:29;;;;;;;5.70;3.57;;;1.80;98.60;;;;;;5018697;28;20569;-86
2021/01/14 10:11:55;;;;;;;4.83;3.60;;;1.70;97.00;;;;;;5018772;28;20208;-86
2021/01/14 10:14:22;;;;;;;4.17;3.77;;;1.60;96.90;;;;;;5018605;28;20534;-86
2021/01/14 10:16:49;;;;;;;5.27;3.10;;;1.60;98.80;;;;;;5019140;28;20256;-87
2021/01/14 10:19:18;;;;;;;8.00;3.53;;;1.70;97.40;;;;;;5018904;28;20214;-87
2021/01/14 10:21:44;;;;;;;5.30;3.50;;;1.80;96.80;;;;;;5019050;28;20194;-86
2021/01/14 10:24:29;;;;;;;3.93;3.53;;;1.80;96.30;;;;;;5017492;28;20186;-86
2021/01/14 10:27:12;;;;;;;4.40;3.20;;;1.70;96.70;;;;;;5017849;28;20177;-87
2021/01/14 10:29:38;;;;;;;4.60;4.10;;;1.70;97.50;;;;;;5017906;28;20197;-87
2021/01/14 10:32:23;;;;;;;7.40;4.17;;;1.50;97.10;;;;;;5019755;28;20174;-87
2021/01/14 10:34:51;;;;;;;3.70;3.40;;;1.50;98.80;;;;;;5020540;28;20606;-87
2021/01/14 10:37:21;;;;;;;4.43;4.03;;;1.60;97.00;;;;;;5039247;28;20182;-87
2021/01/14 10:39:47;;;;;;;5.10;4.67;;;1.70;98.50;;;;;;5029871;28;20292;-88
2021/01/14 10:42:33;;;;;;;5.43;3.40;;;1.80;99.10;;;;;;5019257;28;20184;-86
2021/01/14 10:45:03;;;;;;;4.23;3.83;;;1.90;99.00;;;;;;5004650;28;20201;-86
2021/01/14 10:47:29;;;;;;;3.93;3.53;;;2.00;98.50;;;;;;5006563;28;20177;-86
2021/01/14 10:49:55;;;;;;;4.90;2.80;;;2.10;97.80;;;;;;5022085;28;20291;-87
2021/01/14 10:52:21;;;;;;;3.60;3.13;;;2.10;95.70;;;;;;5021552;28;20217;-87
2021/01/14 10:55:00;;;;;;;3.73;3.10;;;2.10;94.90;;;;;;5022609;28;20206;-86
2021/01/14 10:57:55;;;;;;;3.80;3.00;;;2.20;94.20;;;;;;5021985;28;20232;-88
2021/01/14 11:00:27;;;;;;;5.43;4.93;;;2.10;94.40;;;;;;5021903;28;20178;-87
2021/01/14 11:03:08;;;;;;;4.90;3.57;;;1.90;94.50;;;;;;5021575;28;20182;-87
2021/01/14 11:05:43;;;;;;;9.13;6.73;;;2.00;96.50;;;;;;5017391;28;20241;-88
2021/01/14 11:08:12;;;;;;;4.77;3.70;;;2.10;96.40;;;;;;5022079;28;20197;-87
2021/01/14 11:10:38;;;;;;;5.80;4.67;;;2.10;95.70;;;;;;5021864;28;20262;-87
2021/01/14 11:13:30;;;;;;;7.77;4.10;;;2.10;95.70;;;;;;5021021;28;20244;-87
2021/01/14 11:15:58;;;;;;;7.33;4.23;;;2.00;96.30;;;;;;5017623;28;20209;-87
2021/01/14 11:18:24;;;;;;;4.93;3.47;;;2.00;94.40;;;;;;5020195;28;20232;-87
2021/01/14 11:20:50;;;;;;;3.90;3.50;;;2.00;95.40;;;;;;5003252;28;20260;-87
2021/01/14 11:23:16;;;;;;;4.07;3.67;;;2.00;96.80;;;;;;5006697;28;20232;-87
2021/01/14 11:25:42;;;;;;;4.50;3.60;;;2.00;96.50;;;;;;5021781;28;20572;-86
2021/01/14 11:28:08;;;;;;;4.70;3.83;;;2.10;96.10;;;;;;5002769;28;20703;-87
2021/01/14 11:30:33;;;;;;;4.37;3.50;;;2.10;96.50;;;;;;5004530;28;20198;-86
2021/01/14 11:32:59;;;;;;;4.13;3.70;;;2.10;96.50;;;;;;5023853;28;20186;-86
2021/01/14 11:35:25;;;;;;;7.07;6.43;;;2.10;96.40;;;;;;5021331;28;20252;-87
2021/01/14 11:37:50;;;;;;;4.50;4.10;;;2.20;96.20;;;;;;5003564;28;20197;-87
2021/01/14 11:40:16;;;;;;;4.17;3.60;;;2.20;95.30;;;;;;5018380;28;20718;-87
2021/01/14 11:42:42;;;;;;;3.80;3.50;;;2.30;96.30;;;;;;5019934;28;20197;-87
2021/01/14 11:45:08;;;;;;;5.97;3.90;;;2.30;95.60;;;;;;5020577;28;20216;-87
2021/01/14 11:47:33;;;;;;;8.70;7.93;;;2.20;96.70;;;;;;5019746;28;20217;-87
2021/01/14 11:49:59;;;;;;;6.37;5.30;;;2.20;95.90;;;;;;5019461;28;20240;-87
2021/01/14 11:52:25;;;;;;;4.20;3.80;;;2.30;95.90;;;;;;5019954;28;20494;-87
2021/01/14 11:54:51;;;;;;;5.37;4.27;;;2.30;95.60;;;;;;5001543;28;20279;-87
2021/01/14 11:57:17;;;;;;;5.30;4.00;;;2.30;96.50;;;;;;5018518;28;20189;-87
2021/01/14 11:59:43;;;;;;;3.80;3.40;;;2.30;96.10;;;;;;5023869;28;20197;-89
2021/01/14 12:02:08;;;;;;;4.03;3.63;;;2.30;95.70;;;;;;5036901;28;20237;-88
2021/01/14 12:04:34;;;;;;;4.60;3.83;;;2.40;96.00;;;;;;5018220;28;20189;-87
2021/01/14 12:07:00;;;;;;;4.77;3.87;;;2.30;96.50;;;;;;5000898;28;20189;-87
2021/01/14 12:09:25;;;;;;;6.57;5.57;;;2.40;96.70;;;;;;5019347;28;20280;-88
2021/01/14 12:11:54;;;;;;;3.90;3.57;;;2.40;96.30;;;;;;5016901;28;20273;-88
2021/01/14 12:14:21;;;;;;;5.03;3.67;;;2.60;94.40;;;;;;5012636;28;20928;-88
2021/01/14 12:16:47;;;;;;;4.87;4.10;;;2.50;94.70;;;;;;5021617;28;20209;-87
2021/01/14 12:19:13;;;;;;;6.70;4.07;;;2.50;95.00;;;;;;5023848;28;20788;-87
2021/01/14 12:21:39;;;;;;;6.47;3.53;;;2.60;94.90;;;;;;5025789;28;20174;-91
2021/01/14 12:24:05;;;;;;;3.60;3.30;;;2.60;94.60;;;;;;5025186;28;20245;-90
2021/01/14 12:26:30;;;;;;;4.50;3.60;;;2.50;94.40;;;;;;5023622;28;20178;-91
2021/01/14 12:28:56;;;;;;;4.03;3.50;;;2.50;95.70;;;;;;5021895;28;20202;-91
2021/01/14 12:31:22;;;;;;;4.57;3.90;;;2.50;94.60;;;;;;5013794;28;20253;-89
2021/01/14 12:33:47;;;;;;;4.40;4.00;;;2.30;95.70;;;;;;5013510;28;20653;-89
2021/01/14 12:36:13;;;;;;;4.73;3.63;;;2.20;95.70;;;;;;5017505;28;20684;-89
2021/01/14 12:38:41;;;;;;;5.23;4.20;;;2.30;96.20;;;;;;5018862;28;20229;-89
2021/01/14 12:41:07;;;;;;;5.30;4.80;;;2.40;94.50;;;;;;5005102;28;20633;-89
2021/01/14 12:43:33;;;;;;;6.10;5.50;;;2.40;94.00;;;;;;5002556;28;20217;-89
2021/01/14 12:45:58;;;;;;;5.80;5.10;;;2.30;95.20;;;;;;5002766;28;20552;-90
2021/01/14 12:48:24;;;;;;;5.97;5.43;;;2.40;94.70;;;;;;5019120;28;20577;-89
2021/01/14 12:50:49;;;;;;;6.47;5.03;;;2.40;95.40;;;;;;5007420;28;20190;-90
2021/01/14 12:53:15;;;;;;;6.33;5.03;;;2.30;96.40;;;;;;5008755;28;20194;-90
2021/01/14 12:55:41;;;;;;;5.30;4.80;;;2.40;96.10;;;;;;5013768;28;20216;-90
2021/01/14 12:58:07;;;;;;;5.70;5.20;;;2.30;97.00;;;;;;4985322;28;20216;-90
2021/01/14 13:00:32;;;;;;;5.53;4.90;;;2.30;95.40;;;;;;4985776;28;20191;-89
2021/01/14 13:02:58;;;;;;;5.73;4.73;;;2.30;95.20;;;;;;4998329;28;20221;-91
2021/01/14 13:05:24;;;;;;;5.43;4.90;;;2.30;97.10;;;;;;5005020;28;20205;-91
2021/01/14 13:07:50;;;;;;;4.83;4.33;;;2.50;95.50;;;;;;4981671;28;20265;-91